createdAt,value
2023-04-30T00:00:01.435Z,14.76
2023-04-30T00:05:02.862Z,14.64
2023-04-30T00:10:05.325Z,14.61
2023-04-30T00:15:07.115Z,14.53
2023-04-30T00:20:08.728Z,14.48
2023-04-30T00:25:10.069Z,14.38
2023-04-30T00:30:12.093Z,14.22
2023-04-30T00:35:13.454Z,14.06
2023-04-30T00:40:15.002Z,13.91
2023-04-30T00:45:17.912Z,13.79
2023-04-30T00:50:19.771Z,13.63
2023-04-30T00:55:21.564Z,13.49
2023-04-30T01:00:22.999Z,13.36
2023-04-30T01:05:24.511Z,13.22
2023-04-30T01:10:46.325Z,13.04
2023-04-30T01:15:57.041Z,12.84
2023-04-30T01:21:03.961Z,12.73
2023-04-30T01:26:41.541Z,12.57
2023-04-30T01:31:46.145Z,12.41
2023-04-30T01:37:08.360Z,12.27
2023-04-30T01:42:20.452Z,12.16
2023-04-30T01:47:30.898Z,12.05
2023-04-30T01:52:50.080Z,11.90
2023-04-30T01:58:05.100Z,11.78
2023-04-30T02:03:07.590Z,11.73
2023-04-30T02:08:09.003Z,11.67
2023-04-30T02:13:10.414Z,11.60
2023-04-30T02:18:11.764Z,11.53
2023-04-30T02:23:13.256Z,11.51
2023-04-30T02:28:14.667Z,11.45
2023-04-30T02:33:16.125Z,11.41
2023-04-30T02:38:17.450Z,11.44
2023-04-30T02:43:18.865Z,11.47
2023-04-30T02:48:20.209Z,11.48
2023-04-30T02:53:21.517Z,11.51
2023-04-30T02:58:22.861Z,11.55
2023-04-30T03:03:24.195Z,11.58
2023-04-30T03:08:26.477Z,11.66
2023-04-30T03:13:28.172Z,11.82
2023-04-30T03:18:29.528Z,11.93
2023-04-30T03:23:30.958Z,12.06
2023-04-30T03:28:32.350Z,12.13
2023-04-30T03:33:34.176Z,12.18
2023-04-30T03:38:35.580Z,12.26
2023-04-30T03:43:37.891Z,12.30
2023-04-30T03:48:39.218Z,12.32
2023-04-30T03:53:40.631Z,12.39
2023-04-30T03:58:42.026Z,12.43
2023-04-30T04:03:43.437Z,12.43
2023-04-30T04:08:44.818Z,12.43
2023-04-30T04:13:46.383Z,12.36
2023-04-30T04:18:47.764Z,12.26
2023-04-30T04:23:49.290Z,12.25
2023-04-30T04:28:50.678Z,12.28
2023-04-30T04:33:58.036Z,12.23
2023-04-30T04:39:02.521Z,12.22
2023-04-30T04:44:04.672Z,12.12
2023-04-30T04:49:06.416Z,12.06
2023-04-30T04:54:07.742Z,12.03
2023-04-30T04:59:09.114Z,11.89
2023-04-30T05:04:10.484Z,11.85
2023-04-30T05:09:11.845Z,11.87
2023-04-30T05:14:13.213Z,11.86
2023-04-30T05:19:14.532Z,11.88
2023-04-30T05:24:16.093Z,11.91
2023-04-30T05:29:17.420Z,12.01
2023-04-30T05:34:18.813Z,12.16
2023-04-30T05:39:20.222Z,12.25
2023-04-30T05:44:21.945Z,12.37
2023-04-30T05:49:23.318Z,12.50
2023-04-30T05:54:24.662Z,12.56
2023-04-30T05:59:26.100Z,12.62
2023-04-30T06:04:27.563Z,12.67
2023-04-30T06:09:28.870Z,12.68
2023-04-30T06:14:30.623Z,12.69
2023-04-30T06:19:32.027Z,12.77
2023-04-30T06:24:33.377Z,12.82
2023-04-30T06:29:34.732Z,12.96
2023-04-30T06:34:36.985Z,13.14
2023-04-30T06:39:38.335Z,13.32
2023-04-30T06:44:39.670Z,13.41
2023-04-30T06:49:41.030Z,13.60
2023-04-30T06:54:43.759Z,13.63
2023-04-30T06:59:45.121Z,13.73
2023-04-30T07:04:46.735Z,13.77
2023-04-30T07:09:49.714Z,14.01
2023-04-30T07:14:53.363Z,14.24
2023-04-30T07:19:54.994Z,14.38
2023-04-30T07:24:56.702Z,14.50
2023-04-30T07:29:58.128Z,14.67
2023-04-30T07:34:59.481Z,14.64
2023-04-30T07:40:00.865Z,14.85
2023-04-30T07:45:03.540Z,15.04
2023-04-30T07:50:05.538Z,15.06
2023-04-30T07:55:07.249Z,15.20
2023-04-30T08:00:09.406Z,15.30
2023-04-30T08:05:11.187Z,15.45
2023-04-30T08:10:12.820Z,15.57
2023-04-30T08:15:14.298Z,15.72
2023-04-30T08:20:15.725Z,15.92
2023-04-30T08:25:17.159Z,15.97
2023-04-30T08:30:19.079Z,16.09
2023-04-30T08:35:21.819Z,16.33
2023-04-30T08:40:33.848Z,16.43
2023-04-30T08:45:45.421Z,16.58
2023-04-30T08:50:46.871Z,16.84
2023-04-30T08:55:48.402Z,16.86
2023-04-30T09:00:49.744Z,16.93
2023-04-30T09:05:51.114Z,17.09
2023-04-30T09:10:52.562Z,17.29
2023-04-30T09:15:53.954Z,17.43
2023-04-30T09:21:02.818Z,17.51
2023-04-30T09:26:04.200Z,17.59
2023-04-30T09:31:20.046Z,17.75
2023-04-30T09:36:21.470Z,17.87
2023-04-30T09:41:27.750Z,18.11
2023-04-30T09:46:33.831Z,18.34
2023-04-30T09:51:35.662Z,18.39
2023-04-30T09:56:39.367Z,18.39
2023-04-30T10:01:41.326Z,18.64
2023-04-30T10:06:43.444Z,18.76
2023-04-30T10:11:46.103Z,19.11
2023-04-30T10:16:57.589Z,19.14
2023-04-30T10:21:59.534Z,19.45
2023-04-30T10:27:01.107Z,19.58
2023-04-30T10:32:05.062Z,19.77
2023-04-30T10:37:18.899Z,20.08
2023-04-30T10:42:20.324Z,20.40
2023-04-30T10:47:28.875Z,20.54
2023-04-30T10:52:30.548Z,20.80
2023-04-30T10:57:32.250Z,21.08
2023-04-30T11:02:44.418Z,21.28
2023-04-30T11:07:58.516Z,21.46
2023-04-30T11:13:04.224Z,21.52
2023-04-30T11:18:08.146Z,21.74
2023-04-30T11:23:19.711Z,21.99
2023-04-30T11:28:27.277Z,22.07
2023-04-30T11:33:33.330Z,22.10
2023-04-30T11:38:36.286Z,22.18
2023-04-30T11:43:37.692Z,22.37
2023-04-30T11:48:44.467Z,22.77
2023-04-30T11:53:50.279Z,23.09
2023-04-30T11:58:53.414Z,23.24
2023-04-30T12:03:56.338Z,23.55
2023-04-30T12:09:04.661Z,23.67
2023-04-30T12:14:10.421Z,23.79
2023-04-30T12:19:12.726Z,24.09
2023-04-30T12:24:16.659Z,24.08
2023-04-30T12:29:18.914Z,24.32
2023-04-30T12:34:20.343Z,24.41
2023-04-30T12:39:21.762Z,24.63
2023-04-30T12:44:25.379Z,24.80
2023-04-30T12:49:33.487Z,25.08
2023-04-30T12:54:36.731Z,25.17
2023-04-30T12:59:40.744Z,25.51
2023-04-30T13:04:42.703Z,25.81
2023-04-30T13:09:44.025Z,26.15
2023-04-30T13:14:45.459Z,26.17
2023-04-30T13:19:46.930Z,26.23
2023-04-30T13:24:48.243Z,26.16
2023-04-30T13:29:49.605Z,26.15
2023-04-30T13:34:54.875Z,26.48
2023-04-30T13:39:56.514Z,26.68
2023-04-30T13:44:58.205Z,26.63
2023-04-30T13:49:59.879Z,26.89
2023-04-30T13:55:01.568Z,27.05
2023-04-30T14:00:04.548Z,27.45
2023-04-30T14:05:07.013Z,27.92
2023-04-30T14:10:08.757Z,28.31
2023-04-30T14:15:10.436Z,27.96
2023-04-30T14:20:12.404Z,27.56
2023-04-30T14:25:13.785Z,27.46
2023-04-30T14:30:15.587Z,27.65
2023-04-30T14:35:17.101Z,28.24
2023-04-30T14:40:18.476Z,28.03
2023-04-30T14:45:19.838Z,27.38
2023-04-30T14:50:21.180Z,27.74
2023-04-30T14:55:22.613Z,28.41
2023-04-30T15:00:24.075Z,28.50
2023-04-30T15:05:26.165Z,28.31
2023-04-30T15:10:27.485Z,27.97
2023-04-30T15:15:29.554Z,27.24
2023-04-30T15:20:31.538Z,26.68
2023-04-30T15:25:32.941Z,25.96
2023-04-30T15:30:34.308Z,25.78
2023-04-30T15:35:35.761Z,25.47
2023-04-30T15:40:37.157Z,25.20
2023-04-30T15:45:38.715Z,24.98
2023-04-30T15:50:40.126Z,24.73
2023-04-30T15:55:41.537Z,24.34
2023-04-30T16:00:44.069Z,24.48
2023-04-30T16:05:45.485Z,24.97
2023-04-30T16:10:47.045Z,25.63
2023-04-30T16:15:48.475Z,26.42
2023-04-30T16:20:49.942Z,26.88
2023-04-30T16:25:51.300Z,27.26
2023-04-30T16:30:52.652Z,27.58
2023-04-30T16:35:55.045Z,27.88
2023-04-30T16:40:56.584Z,28.10
2023-04-30T16:45:58.278Z,27.75
2023-04-30T16:50:59.600Z,27.90
2023-04-30T16:56:00.994Z,28.31
2023-04-30T17:01:02.353Z,28.50
2023-04-30T17:06:05.161Z,28.75
2023-04-30T17:11:06.621Z,28.64
2023-04-30T17:16:08.058Z,28.46
2023-04-30T17:21:09.433Z,28.11
2023-04-30T17:26:10.826Z,27.73
2023-04-30T17:31:13.457Z,27.35
2023-04-30T17:36:15.691Z,26.81
2023-04-30T17:41:18.476Z,26.52
2023-04-30T17:46:19.946Z,25.99
2023-04-30T17:51:21.388Z,25.27
2023-04-30T17:56:24.690Z,24.67
2023-04-30T18:01:26.728Z,24.09
2023-04-30T18:06:28.335Z,23.61
2023-04-30T18:11:29.784Z,23.08
2023-04-30T18:16:33.346Z,22.54
2023-04-30T18:21:35.062Z,22.13
2023-04-30T18:26:37.434Z,21.83
2023-04-30T18:31:38.906Z,21.53
2023-04-30T18:36:42.953Z,21.22
2023-04-30T18:41:44.641Z,20.88
2023-04-30T18:46:46.048Z,20.64
2023-04-30T18:51:47.392Z,20.34
2023-04-30T18:56:48.708Z,20.01
2023-04-30T19:01:50.109Z,19.74
2023-04-30T19:06:52.688Z,19.55
2023-04-30T19:11:54.106Z,19.25
2023-04-30T19:16:55.721Z,19.07
2023-04-30T19:21:57.066Z,18.86
2023-04-30T19:26:58.390Z,18.59
2023-04-30T19:31:59.926Z,18.41
2023-04-30T19:37:01.383Z,18.15
2023-04-30T19:42:03.613Z,17.94
2023-04-30T19:47:04.949Z,17.76
2023-04-30T19:52:07.904Z,17.60
2023-04-30T19:57:09.409Z,17.43
2023-04-30T20:02:10.895Z,17.32
2023-04-30T20:07:12.909Z,17.15
2023-04-30T20:12:14.230Z,17.04
2023-04-30T20:17:16.066Z,16.85
2023-04-30T20:22:17.599Z,16.72
2023-04-30T20:27:18.911Z,16.64
2023-04-30T20:32:20.261Z,16.50
2023-04-30T20:37:21.597Z,16.41
2023-04-30T20:42:23.140Z,16.33
2023-04-30T20:47:24.648Z,16.19
2023-04-30T20:52:26.136Z,16.10
2023-04-30T20:57:27.500Z,16.03
2023-04-30T21:02:29.563Z,15.95
2023-04-30T21:07:34.379Z,15.87
2023-04-30T21:12:35.759Z,15.81
2023-04-30T21:17:37.259Z,15.71
2023-04-30T21:22:39.471Z,15.58
2023-04-30T21:27:40.833Z,15.53
2023-04-30T21:32:47.040Z,15.33
2023-04-30T21:37:48.529Z,15.33
2023-04-30T21:42:50.331Z,15.33
2023-04-30T21:47:51.841Z,15.37
2023-04-30T21:52:53.458Z,15.39
2023-04-30T21:57:54.836Z,15.36
2023-04-30T22:02:56.234Z,15.33
2023-04-30T22:07:57.646Z,15.34
2023-04-30T22:12:58.955Z,15.34
2023-04-30T22:18:00.424Z,15.30
2023-04-30T22:23:01.798Z,15.23
2023-04-30T22:28:03.271Z,15.28
2023-04-30T22:33:04.802Z,15.25
2023-04-30T22:38:07.157Z,15.20
2023-04-30T22:43:09.373Z,15.18
2023-04-30T22:48:11.030Z,15.25
2023-04-30T22:53:13.214Z,15.29
2023-04-30T22:58:14.673Z,15.31
2023-04-30T23:03:16.173Z,15.31
2023-04-30T23:08:17.753Z,15.34
2023-04-30T23:13:19.234Z,15.38
2023-04-30T23:18:21.410Z,15.41
2023-04-30T23:23:23.466Z,15.38
2023-04-30T23:28:25.059Z,15.43
2023-04-30T23:33:26.749Z,15.41
2023-04-30T23:38:28.107Z,15.39
2023-04-30T23:43:31.283Z,15.30
2023-04-30T23:48:32.675Z,15.30
2023-04-30T23:53:35.082Z,15.30
2023-04-30T23:58:36.524Z,15.24
